^^
Station Historical Data
 
Daily Summary for March 27, 2015 Units:  English    Metric   Both
« Previous Day
Next Day »
Daily Weekly Monthly Yearly Custom
  Current: High: Low: Average:
Temperature: 42.5 °F 46.5 °F 42.5 °F 44.8 °F
Dew Point: 39.2 °F 41.8 °F 39.2 °F 40.1 °F
Humidity: 88% 88% 81% 84%
Wind Speed: 6.9mph 12.7mph 0.0mph 5.5mph
Wind Gust: 6.9mph 12.7mph - -
WindNNW - - WNW
Pressure: 29.75 in 29.75 in 29.71 in -
Precipitation: 0.04 in      
Historical Graphs
 
 
Tabular Data for March 27, 2015
Time Temperature Dew Point Pressure Wind Wind Speed Wind Gust Humidity Rainfall Rate (Hourly)
00:04 46.5 °F 41.6 °F 29.71 in Calm     83% 0.00 in
00:09 46.4 °F 41.5 °F 29.72 in North 1.2 mph   83% 0.00 in
00:14 46.4 °F 41.8 °F 29.73 in Calm     84% 0.00 in
00:19 46.4 °F 41.8 °F 29.73 in North 2.3 mph 2.3 mph 84% 0.00 in
00:24 46.3 °F 41.7 °F 29.72 in North 1.2 mph 1.2 mph 84% 0.00 in
00:29 46.3 °F 41.7 °F 29.72 in NW 5.8 mph 5.8 mph 84% 0.00 in
00:34 46.3 °F 41.7 °F 29.72 in NW 3.5 mph 3.5 mph 84% 0.00 in
00:39 46.2 °F 41.3 °F 29.72 in NNW 8.1 mph 8.1 mph 83% 0.00 in
00:44 46.2 °F 41.0 °F 29.72 in NNW 5.8 mph 5.8 mph 82% 0.00 in
00:49 46.2 °F 41.0 °F 29.72 in NNW 7.0 mph 7.0 mph 82% 0.00 in
00:54 46.2 °F 40.7 °F 29.72 in NW 8.1 mph 8.1 mph 81% 0.00 in
00:59 46.1 °F 40.6 °F 29.72 in NNW 5.8 mph 5.8 mph 81% 0.00 in
01:04 46.1 °F 40.6 °F 29.73 in NNW 1.2 mph 1.2 mph 81% 0.00 in
01:09 46.0 °F 40.5 °F 29.73 in NNW 6.9 mph 6.9 mph 81% 0.00 in
01:14 45.9 °F 40.4 °F 29.73 in North 4.6 mph 4.6 mph 81% 0.00 in
01:19 45.8 °F 40.3 °F 29.73 in NNW 6.9 mph 6.9 mph 81% 0.00 in
01:24 45.8 °F 40.3 °F 29.74 in NNW 11.5 mph 11.5 mph 81% 0.00 in
01:29 45.6 °F 40.1 °F 29.73 in NNW 8.1 mph 8.1 mph 81% 0.00 in
01:34 45.5 °F 40.3 °F 29.73 in NW 4.6 mph 4.6 mph 82% 0.00 in
01:39 45.4 °F 40.2 °F 29.73 in NNW 9.2 mph 9.2 mph 82% 0.00 in
01:44 45.2 °F 39.7 °F 29.73 in NNW 11.5 mph 11.5 mph 81% 0.00 in
01:49 45.1 °F 39.6 °F 29.73 in NNW 12.7 mph 12.7 mph 81% 0.00 in
01:54 45.1 °F 39.6 °F 29.74 in NNW 11.5 mph 11.5 mph 81% 0.00 in
01:59 45.0 °F 39.8 °F 29.74 in NW 9.2 mph 9.2 mph 82% 0.00 in
02:04 45.0 °F 39.8 °F 29.74 in WNW 9.2 mph 9.2 mph 82% 0.00 in
02:09 44.9 °F 39.7 °F 29.74 in NW 3.5 mph 3.5 mph 82% 0.00 in
02:14 44.7 °F 39.5 °F 29.74 in NW 8.1 mph 8.1 mph 82% 0.00 in
02:19 44.6 °F 39.8 °F 29.74 in NW 4.6 mph 4.6 mph 83% 0.00 in
02:24 44.5 °F 39.7 °F 29.74 in North 5.0 mph 5.0 mph 83% 0.00 in
02:29 44.3 °F 39.5 °F 29.74 in NNW 4.6 mph 4.6 mph 83% 0.00 in
02:34 44.2 °F 39.7 °F 29.74 in NNW 4.6 mph 4.6 mph 84% 0.01 in
02:39 44.0 °F 39.8 °F 29.73 in NNW 3.5 mph   85% 0.01 in
02:44 43.9 °F 39.7 °F 29.74 in NNW 2.3 mph 2.3 mph 85% 0.01 in
02:49 43.8 °F 39.6 °F 29.74 in NNW 2.3 mph 2.3 mph 85% 0.01 in
02:54 43.7 °F 39.8 °F 29.74 in NNW 2.3 mph 2.3 mph 86% 0.01 in
02:59 43.6 °F 39.4 °F 29.74 in NNW 2.3 mph 2.3 mph 85% 0.01 in
03:04 43.6 °F 39.4 °F 29.74 in NW 4.6 mph 4.6 mph 85% 0.01 in
03:09 43.6 °F 39.4 °F 29.73 in NW 4.6 mph 4.6 mph 85% 0.01 in
03:14 43.5 °F 39.3 °F 29.74 in NW 3.0 mph 3.0 mph 85% 0.01 in
03:19 43.5 °F 39.6 °F 29.74 in NW 2.3 mph 2.3 mph 86% 0.01 in
03:24 43.5 °F 39.6 °F 29.75 in NW 2.3 mph 2.3 mph 86% 0.02 in
03:29 43.4 °F 39.5 °F 29.75 in NW 2.3 mph 2.3 mph 86% 0.02 in
03:34 43.3 °F 39.4 °F 29.75 in NW 3.5 mph 3.5 mph 86% 0.01 in
03:39 43.2 °F 39.3 °F 29.74 in NNW 6.9 mph 6.9 mph 86% 0.01 in
03:44 43.1 °F 39.5 °F 29.75 in NNW 4.6 mph 4.6 mph 87% 0.01 in
03:49 43.0 °F 39.4 °F 29.74 in NNW 4.6 mph 4.6 mph 87% 0.01 in
03:54 42.9 °F 39.6 °F 29.75 in NNW 5.8 mph 5.8 mph 88% 0.02 in
03:59 42.7 °F 39.4 °F 29.74 in NW 6.9 mph 6.9 mph 88% 0.02 in
04:04 42.5 °F 39.2 °F 29.75 in NNW 6.9 mph 6.9 mph 88% 0.03 in
Mechanicsburg,PA USA
Compliments of Weather Underground